sensor_id;sensor_type;location;lat;lon;timestamp;P1;durP1;ratioP1;P2;durP2;ratioP2
73100;SDS011;61288;53.446;-2.266;2022-10-16T00:01:15;9.05;;;1.42;;
73100;SDS011;61288;53.446;-2.266;2022-10-16T00:03:42;10.10;;;1.67;;
73100;SDS011;61288;53.446;-2.266;2022-10-16T00:06:09;9.68;;;1.63;;
73100;SDS011;61288;53.446;-2.266;2022-10-16T00:08:36;10.50;;;1.92;;
73100;SDS011;61288;53.446;-2.266;2022-10-16T00:11:05;15.15;;;1.73;;
73100;SDS011;61288;53.446;-2.266;2022-10-16T00:13:32;12.80;;;1.77;;
73100;SDS011;61288;53.446;-2.266;2022-10-16T00:15:59;12.98;;;2.95;;
73100;SDS011;61288;53.446;-2.266;2022-10-16T00:18:26;11.95;;;2.15;;
73100;SDS011;61288;53.446;-2.266;2022-10-16T00:20:53;8.63;;;1.52;;
73100;SDS011;61288;53.446;-2.266;2022-10-16T00:23:19;13.75;;;1.95;;
73100;SDS011;61288;53.446;-2.266;2022-10-16T00:25:45;11.32;;;1.50;;
73100;SDS011;61288;53.446;-2.266;2022-10-16T00:28:20;7.97;;;1.48;;
73100;SDS011;61288;53.446;-2.266;2022-10-16T00:30:46;14.77;;;1.88;;
73100;SDS011;61288;53.446;-2.266;2022-10-16T00:33:11;11.00;;;1.73;;
73100;SDS011;61288;53.446;-2.266;2022-10-16T00:35:37;16.65;;;1.80;;
73100;SDS011;61288;53.446;-2.266;2022-10-16T00:38:02;10.52;;;1.60;;
73100;SDS011;61288;53.446;-2.266;2022-10-16T00:40:28;9.48;;;1.70;;
73100;SDS011;61288;53.446;-2.266;2022-10-16T00:42:53;9.63;;;1.65;;
73100;SDS011;61288;53.446;-2.266;2022-10-16T00:45:19;10.63;;;1.60;;
73100;SDS011;61288;53.446;-2.266;2022-10-16T00:47:46;12.63;;;1.75;;
73100;SDS011;61288;53.446;-2.266;2022-10-16T00:50:24;13.43;;;1.92;;
73100;SDS011;61288;53.446;-2.266;2022-10-16T00:53:00;8.52;;;1.60;;
73100;SDS011;61288;53.446;-2.266;2022-10-16T00:55:27;12.35;;;1.73;;
73100;SDS011;61288;53.446;-2.266;2022-10-16T00:57:55;12.25;;;1.80;;
73100;SDS011;61288;53.446;-2.266;2022-10-16T01:00:23;10.27;;;1.35;;
73100;SDS011;61288;53.446;-2.266;2022-10-16T01:02:55;9.75;;;1.77;;
73100;SDS011;61288;53.446;-2.266;2022-10-16T01:05:23;13.60;;;1.75;;
73100;SDS011;61288;53.446;-2.266;2022-10-16T01:10:35;12.50;;;1.70;;
73100;SDS011;61288;53.446;-2.266;2022-10-16T01:13:21;15.80;;;2.85;;
73100;SDS011;61288;53.446;-2.266;2022-10-16T01:15:52;9.65;;;1.60;;
73100;SDS011;61288;53.446;-2.266;2022-10-16T01:18:28;12.93;;;1.50;;
73100;SDS011;61288;53.446;-2.266;2022-10-16T01:21:10;12.23;;;1.75;;
73100;SDS011;61288;53.446;-2.266;2022-10-16T01:23:51;12.70;;;1.70;;
73100;SDS011;61288;53.446;-2.266;2022-10-16T01:26:31;9.70;;;1.60;;
73100;SDS011;61288;53.446;-2.266;2022-10-16T01:31:39;8.82;;;1.65;;
73100;SDS011;61288;53.446;-2.266;2022-10-16T01:34:11;11.77;;;2.17;;
73100;SDS011;61288;53.446;-2.266;2022-10-16T01:36:45;10.48;;;1.30;;
73100;SDS011;61288;53.446;-2.266;2022-10-16T01:39:15;8.73;;;1.75;;
73100;SDS011;61288;53.446;-2.266;2022-10-16T01:41:46;14.32;;;1.60;;
73100;SDS011;61288;53.446;-2.266;2022-10-16T01:44:18;13.60;;;1.95;;
73100;SDS011;61288;53.446;-2.266;2022-10-16T01:46:48;13.68;;;1.50;;
73100;SDS011;61288;53.446;-2.266;2022-10-16T01:49:16;9.68;;;1.77;;
73100;SDS011;61288;53.446;-2.266;2022-10-16T01:51:44;13.20;;;1.63;;
73100;SDS011;61288;53.446;-2.266;2022-10-16T01:54:14;9.73;;;1.70;;
73100;SDS011;61288;53.446;-2.266;2022-10-16T01:56:44;10.43;;;1.85;;
73100;SDS011;61288;53.446;-2.266;2022-10-16T01:59:12;10.15;;;1.35;;
73100;SDS011;61288;53.446;-2.266;2022-10-16T02:01:43;13.15;;;1.63;;
73100;SDS011;61288;53.446;-2.266;2022-10-16T02:04:23;9.23;;;1.70;;
73100;SDS011;61288;53.446;-2.266;2022-10-16T02:06:55;11.93;;;1.27;;
73100;SDS011;61288;53.446;-2.266;2022-10-16T02:09:20;6.07;;;1.10;;
73100;SDS011;61288;53.446;-2.266;2022-10-16T02:11:46;6.90;;;1.30;;
73100;SDS011;61288;53.446;-2.266;2022-10-16T02:14:14;6.40;;;1.20;;
73100;SDS011;61288;53.446;-2.266;2022-10-16T02:16:42;10.57;;;1.63;;
73100;SDS011;61288;53.446;-2.266;2022-10-16T02:19:09;7.15;;;1.23;;
73100;SDS011;61288;53.446;-2.266;2022-10-16T02:29:29;7.43;;;1.40;;
73100;SDS011;61288;53.446;-2.266;2022-10-16T02:31:59;5.35;;;1.10;;
73100;SDS011;61288;53.446;-2.266;2022-10-16T02:36:55;6.88;;;0.80;;
73100;SDS011;61288;53.446;-2.266;2022-10-16T02:39:22;4.78;;;0.90;;
73100;SDS011;61288;53.446;-2.266;2022-10-16T02:41:47;8.90;;;1.10;;
73100;SDS011;61288;53.446;-2.266;2022-10-16T02:44:13;4.75;;;1.00;;
73100;SDS011;61288;53.446;-2.266;2022-10-16T02:46:38;8.18;;;1.00;;
73100;SDS011;61288;53.446;-2.266;2022-10-16T02:49:04;7.95;;;1.02;;
73100;SDS011;61288;53.446;-2.266;2022-10-16T02:51:29;5.82;;;0.90;;
73100;SDS011;61288;53.446;-2.266;2022-10-16T02:53:55;7.65;;;0.90;;
73100;SDS011;61288;53.446;-2.266;2022-10-16T02:56:20;6.47;;;0.90;;
73100;SDS011;61288;53.446;-2.266;2022-10-16T02:58:46;6.35;;;1.00;;
73100;SDS011;61288;53.446;-2.266;2022-10-16T03:01:12;6.28;;;1.40;;
73100;SDS011;61288;53.446;-2.266;2022-10-16T03:03:39;5.18;;;1.00;;
73100;SDS011;61288;53.446;-2.266;2022-10-16T03:06:04;9.15;;;1.13;;
73100;SDS011;61288;53.446;-2.266;2022-10-16T03:08:30;5.60;;;1.27;;
73100;SDS011;61288;53.446;-2.266;2022-10-16T03:10:56;13.98;;;1.67;;
73100;SDS011;61288;53.446;-2.266;2022-10-16T03:13:21;6.18;;;1.00;;
73100;SDS011;61288;53.446;-2.266;2022-10-16T03:15:47;6.03;;;1.23;;
73100;SDS011;61288;53.446;-2.266;2022-10-16T03:18:13;4.90;;;0.90;;
73100;SDS011;61288;53.446;-2.266;2022-10-16T03:20:38;7.72;;;1.00;;
73100;SDS011;61288;53.446;-2.266;2022-10-16T03:23:05;5.75;;;1.15;;
73100;SDS011;61288;53.446;-2.266;2022-10-16T03:25:33;5.50;;;0.90;;
73100;SDS011;61288;53.446;-2.266;2022-10-16T03:27:59;4.72;;;0.98;;
73100;SDS011;61288;53.446;-2.266;2022-10-16T03:30:25;3.55;;;1.10;;
73100;SDS011;61288;53.446;-2.266;2022-10-16T03:32:50;6.50;;;1.27;;
73100;SDS011;61288;53.446;-2.266;2022-10-16T03:35:19;5.72;;;1.00;;
73100;SDS011;61288;53.446;-2.266;2022-10-16T03:37:45;5.20;;;1.00;;
73100;SDS011;61288;53.446;-2.266;2022-10-16T03:40:11;7.43;;;1.05;;
73100;SDS011;61288;53.446;-2.266;2022-10-16T03:42:36;6.45;;;1.02;;
73100;SDS011;61288;53.446;-2.266;2022-10-16T03:45:02;3.28;;;0.80;;
73100;SDS011;61288;53.446;-2.266;2022-10-16T03:47:28;3.80;;;1.00;;
73100;SDS011;61288;53.446;-2.266;2022-10-16T03:49:54;7.82;;;1.10;;
73100;SDS011;61288;53.446;-2.266;2022-10-16T03:52:20;4.40;;;0.90;;
73100;SDS011;61288;53.446;-2.266;2022-10-16T03:54:45;12.30;;;1.55;;
73100;SDS011;61288;53.446;-2.266;2022-10-16T03:57:11;2.50;;;0.80;;
73100;SDS011;61288;53.446;-2.266;2022-10-16T03:59:36;6.65;;;1.23;;
73100;SDS011;61288;53.446;-2.266;2022-10-16T04:02:02;5.38;;;0.90;;
73100;SDS011;61288;53.446;-2.266;2022-10-16T04:04:27;8.60;;;1.08;;
73100;SDS011;61288;53.446;-2.266;2022-10-16T04:06:53;5.03;;;0.98;;
73100;SDS011;61288;53.446;-2.266;2022-10-16T04:09:18;4.55;;;0.90;;
73100;SDS011;61288;53.446;-2.266;2022-10-16T04:11:44;6.40;;;1.17;;
73100;SDS011;61288;53.446;-2.266;2022-10-16T04:14:09;4.78;;;1.20;;
73100;SDS011;61288;53.446;-2.266;2022-10-16T04:16:35;3.40;;;1.00;;
73100;SDS011;61288;53.446;-2.266;2022-10-16T04:19:01;6.50;;;1.20;;
73100;SDS011;61288;53.446;-2.266;2022-10-16T04:21:26;4.30;;;1.05;;
73100;SDS011;61288;53.446;-2.266;2022-10-16T04:23:51;10.13;;;1.60;;
73100;SDS011;61288;53.446;-2.266;2022-10-16T04:26:17;4.78;;;1.00;;
73100;SDS011;61288;53.446;-2.266;2022-10-16T04:28:43;10.10;;;1.42;;
73100;SDS011;61288;53.446;-2.266;2022-10-16T04:33:35;6.05;;;1.25;;
73100;SDS011;61288;53.446;-2.266;2022-10-16T04:36:01;6.45;;;1.50;;
73100;SDS011;61288;53.446;-2.266;2022-10-16T04:38:27;6.10;;;1.27;;
73100;SDS011;61288;53.446;-2.266;2022-10-16T04:40:53;6.50;;;1.20;;
73100;SDS011;61288;53.446;-2.266;2022-10-16T04:43:19;5.78;;;1.10;;
73100;SDS011;61288;53.446;-2.266;2022-10-16T04:45:44;8.25;;;1.38;;
73100;SDS011;61288;53.446;-2.266;2022-10-16T04:48:10;6.97;;;1.50;;
73100;SDS011;61288;53.446;-2.266;2022-10-16T04:50:36;6.03;;;1.40;;
73100;SDS011;61288;53.446;-2.266;2022-10-16T04:53:01;7.05;;;1.27;;
73100;SDS011;61288;53.446;-2.266;2022-10-16T04:55:27;6.57;;;1.02;;
73100;SDS011;61288;53.446;-2.266;2022-10-16T04:57:52;6.15;;;1.20;;
73100;SDS011;61288;53.446;-2.266;2022-10-16T05:00:18;9.02;;;1.40;;
73100;SDS011;61288;53.446;-2.266;2022-10-16T05:02:44;3.45;;;1.20;;
73100;SDS011;61288;53.446;-2.266;2022-10-16T05:05:09;3.95;;;1.13;;
73100;SDS011;61288;53.446;-2.266;2022-10-16T05:07:36;8.15;;;1.52;;
73100;SDS011;61288;53.446;-2.266;2022-10-16T05:10:02;4.95;;;1.08;;
73100;SDS011;61288;53.446;-2.266;2022-10-16T05:12:28;4.20;;;1.20;;
73100;SDS011;61288;53.446;-2.266;2022-10-16T05:14:53;7.07;;;1.33;;
73100;SDS011;61288;53.446;-2.266;2022-10-16T05:17:24;8.60;;;1.35;;
73100;SDS011;61288;53.446;-2.266;2022-10-16T05:19:50;3.05;;;1.13;;
73100;SDS011;61288;53.446;-2.266;2022-10-16T05:22:16;5.90;;;1.48;;
73100;SDS011;61288;53.446;-2.266;2022-10-16T05:24:41;4.90;;;1.10;;
73100;SDS011;61288;53.446;-2.266;2022-10-16T05:27:07;3.45;;;1.08;;
73100;SDS011;61288;53.446;-2.266;2022-10-16T05:29:32;6.63;;;1.40;;
73100;SDS011;61288;53.446;-2.266;2022-10-16T05:31:58;6.30;;;1.13;;
73100;SDS011;61288;53.446;-2.266;2022-10-16T05:34:24;4.90;;;1.20;;
73100;SDS011;61288;53.446;-2.266;2022-10-16T05:36:49;7.05;;;1.20;;
73100;SDS011;61288;53.446;-2.266;2022-10-16T05:39:15;6.93;;;1.00;;
73100;SDS011;61288;53.446;-2.266;2022-10-16T05:41:41;6.47;;;1.25;;
73100;SDS011;61288;53.446;-2.266;2022-10-16T05:44:07;6.95;;;1.42;;
73100;SDS011;61288;53.446;-2.266;2022-10-16T05:46:32;4.22;;;1.00;;
73100;SDS011;61288;53.446;-2.266;2022-10-16T05:48:58;3.83;;;0.90;;
73100;SDS011;61288;53.446;-2.266;2022-10-16T05:51:24;4.97;;;1.48;;
73100;SDS011;61288;53.446;-2.266;2022-10-16T05:53:50;6.82;;;1.00;;
73100;SDS011;61288;53.446;-2.266;2022-10-16T05:56:16;7.32;;;1.20;;
73100;SDS011;61288;53.446;-2.266;2022-10-16T05:58:42;4.13;;;1.10;;
73100;SDS011;61288;53.446;-2.266;2022-10-16T06:01:12;2.92;;;1.00;;
73100;SDS011;61288;53.446;-2.266;2022-10-16T06:03:41;7.07;;;1.38;;
73100;SDS011;61288;53.446;-2.266;2022-10-16T06:06:22;3.20;;;1.10;;
73100;SDS011;61288;53.446;-2.266;2022-10-16T06:08:50;5.43;;;1.20;;
73100;SDS011;61288;53.446;-2.266;2022-10-16T06:11:18;7.13;;;1.17;;
73100;SDS011;61288;53.446;-2.266;2022-10-16T06:13:51;6.28;;;0.95;;
73100;SDS011;61288;53.446;-2.266;2022-10-16T06:16:19;6.50;;;1.20;;
73100;SDS011;61288;53.446;-2.266;2022-10-16T06:18:45;7.07;;;1.33;;
73100;SDS011;61288;53.446;-2.266;2022-10-16T06:21:16;6.10;;;1.77;;
73100;SDS011;61288;53.446;-2.266;2022-10-16T06:23:44;10.15;;;1.67;;
73100;SDS011;61288;53.446;-2.266;2022-10-16T06:26:12;4.65;;;1.30;;
73100;SDS011;61288;53.446;-2.266;2022-10-16T06:28:39;4.32;;;1.30;;
73100;SDS011;61288;53.446;-2.266;2022-10-16T06:31:06;5.25;;;1.42;;
73100;SDS011;61288;53.446;-2.266;2022-10-16T06:33:33;7.65;;;1.42;;
73100;SDS011;61288;53.446;-2.266;2022-10-16T06:36:00;6.00;;;1.38;;
73100;SDS011;61288;53.446;-2.266;2022-10-16T06:38:34;5.38;;;1.20;;
73100;SDS011;61288;53.446;-2.266;2022-10-16T06:41:00;4.10;;;1.15;;
73100;SDS011;61288;53.446;-2.266;2022-10-16T06:43:28;5.15;;;1.20;;
73100;SDS011;61288;53.446;-2.266;2022-10-16T06:45:57;6.03;;;1.17;;
73100;SDS011;61288;53.446;-2.266;2022-10-16T06:48:24;4.68;;;1.33;;
73100;SDS011;61288;53.446;-2.266;2022-10-16T06:50:56;4.22;;;0.93;;
73100;SDS011;61288;53.446;-2.266;2022-10-16T06:53:31;6.57;;;1.10;;
73100;SDS011;61288;53.446;-2.266;2022-10-16T06:56:05;3.85;;;1.00;;
73100;SDS011;61288;53.446;-2.266;2022-10-16T06:58:36;6.80;;;1.30;;
73100;SDS011;61288;53.446;-2.266;2022-10-16T07:01:02;5.97;;;1.40;;
73100;SDS011;61288;53.446;-2.266;2022-10-16T07:03:28;6.82;;;1.40;;
73100;SDS011;61288;53.446;-2.266;2022-10-16T07:05:53;9.18;;;1.42;;
73100;SDS011;61288;53.446;-2.266;2022-10-16T07:08:19;4.07;;;0.95;;
73100;SDS011;61288;53.446;-2.266;2022-10-16T07:10:45;6.50;;;1.00;;
73100;SDS011;61288;53.446;-2.266;2022-10-16T07:13:12;7.18;;;1.50;;
73100;SDS011;61288;53.446;-2.266;2022-10-16T07:15:39;5.13;;;1.20;;
73100;SDS011;61288;53.446;-2.266;2022-10-16T07:18:05;7.00;;;1.38;;
73100;SDS011;61288;53.446;-2.266;2022-10-16T07:20:31;5.10;;;0.95;;
73100;SDS011;61288;53.446;-2.266;2022-10-16T07:22:57;7.22;;;1.40;;
73100;SDS011;61288;53.446;-2.266;2022-10-16T07:25:23;9.68;;;1.30;;
73100;SDS011;61288;53.446;-2.266;2022-10-16T07:27:49;10.38;;;1.40;;
73100;SDS011;61288;53.446;-2.266;2022-10-16T07:30:14;5.38;;;1.20;;
73100;SDS011;61288;53.446;-2.266;2022-10-16T07:32:40;2.20;;;0.98;;
73100;SDS011;61288;53.446;-2.266;2022-10-16T07:35:05;3.90;;;1.38;;
73100;SDS011;61288;53.446;-2.266;2022-10-16T07:37:31;2.85;;;1.05;;
73100;SDS011;61288;53.446;-2.266;2022-10-16T07:39:57;8.13;;;1.20;;
73100;SDS011;61288;53.446;-2.266;2022-10-16T07:42:22;5.15;;;1.20;;
73100;SDS011;61288;53.446;-2.266;2022-10-16T07:44:48;7.57;;;1.60;;
73100;SDS011;61288;53.446;-2.266;2022-10-16T07:47:15;6.32;;;1.40;;
73100;SDS011;61288;53.446;-2.266;2022-10-16T07:49:41;6.78;;;1.42;;
73100;SDS011;61288;53.446;-2.266;2022-10-16T07:52:06;5.50;;;1.40;;
73100;SDS011;61288;53.446;-2.266;2022-10-16T07:54:32;4.78;;;1.45;;
73100;SDS011;61288;53.446;-2.266;2022-10-16T07:56:57;1.77;;;0.98;;
73100;SDS011;61288;53.446;-2.266;2022-10-16T07:59:23;3.03;;;0.98;;
73100;SDS011;61288;53.446;-2.266;2022-10-16T08:01:49;4.63;;;1.10;;
73100;SDS011;61288;53.446;-2.266;2022-10-16T08:04:15;3.30;;;1.00;;
73100;SDS011;61288;53.446;-2.266;2022-10-16T08:06:41;4.20;;;1.02;;
73100;SDS011;61288;53.446;-2.266;2022-10-16T08:09:08;1.98;;;0.90;;
73100;SDS011;61288;53.446;-2.266;2022-10-16T08:11:33;3.03;;;1.17;;
73100;SDS011;61288;53.446;-2.266;2022-10-16T08:13:59;6.95;;;1.27;;
73100;SDS011;61288;53.446;-2.266;2022-10-16T08:16:25;2.30;;;0.80;;
73100;SDS011;61288;53.446;-2.266;2022-10-16T08:18:51;5.47;;;1.20;;
73100;SDS011;61288;53.446;-2.266;2022-10-16T08:21:18;6.65;;;1.30;;
73100;SDS011;61288;53.446;-2.266;2022-10-16T08:23:45;7.63;;;1.13;;
73100;SDS011;61288;53.446;-2.266;2022-10-16T08:26:11;6.55;;;1.10;;
73100;SDS011;61288;53.446;-2.266;2022-10-16T08:28:38;5.07;;;1.10;;
73100;SDS011;61288;53.446;-2.266;2022-10-16T08:31:04;8.77;;;1.33;;
73100;SDS011;61288;53.446;-2.266;2022-10-16T08:33:34;5.72;;;1.73;;
73100;SDS011;61288;53.446;-2.266;2022-10-16T08:36:01;7.22;;;1.50;;
73100;SDS011;61288;53.446;-2.266;2022-10-16T08:38:28;8.38;;;1.85;;
73100;SDS011;61288;53.446;-2.266;2022-10-16T08:40:54;9.43;;;1.27;;
73100;SDS011;61288;53.446;-2.266;2022-10-16T08:43:43;9.40;;;1.60;;
73100;SDS011;61288;53.446;-2.266;2022-10-16T08:49:14;8.43;;;1.48;;
73100;SDS011;61288;53.446;-2.266;2022-10-16T08:51:40;5.68;;;1.20;;
73100;SDS011;61288;53.446;-2.266;2022-10-16T08:54:28;4.00;;;1.00;;
73100;SDS011;61288;53.446;-2.266;2022-10-16T08:56:56;3.90;;;0.90;;
73100;SDS011;61288;53.446;-2.266;2022-10-16T08:59:26;5.95;;;1.08;;
73100;SDS011;61288;53.446;-2.266;2022-10-16T09:01:59;6.75;;;1.10;;
73100;SDS011;61288;53.446;-2.266;2022-10-16T09:04:37;5.72;;;1.05;;
73100;SDS011;61288;53.446;-2.266;2022-10-16T09:12:42;5.22;;;0.90;;
73100;SDS011;61288;53.446;-2.266;2022-10-16T09:21:15;6.22;;;1.20;;
73100;SDS011;61288;53.446;-2.266;2022-10-16T09:23:46;2.95;;;0.88;;
73100;SDS011;61288;53.446;-2.266;2022-10-16T09:26:13;8.23;;;1.60;;
73100;SDS011;61288;53.446;-2.266;2022-10-16T09:28:41;5.93;;;1.00;;
73100;SDS011;61288;53.446;-2.266;2022-10-16T09:31:17;4.63;;;1.30;;
73100;SDS011;61288;53.446;-2.266;2022-10-16T09:33:45;3.72;;;0.95;;
73100;SDS011;61288;53.446;-2.266;2022-10-16T09:36:15;2.05;;;0.80;;
73100;SDS011;61288;53.446;-2.266;2022-10-16T09:38:43;7.57;;;1.10;;
73100;SDS011;61288;53.446;-2.266;2022-10-16T09:41:18;6.20;;;1.00;;
73100;SDS011;61288;53.446;-2.266;2022-10-16T09:48:56;6.03;;;0.95;;
73100;SDS011;61288;53.446;-2.266;2022-10-16T09:54:01;5.20;;;1.13;;
73100;SDS011;61288;53.446;-2.266;2022-10-16T09:56:31;5.78;;;1.20;;
73100;SDS011;61288;53.446;-2.266;2022-10-16T09:59:01;8.25;;;1.20;;
73100;SDS011;61288;53.446;-2.266;2022-10-16T10:01:50;3.90;;;0.98;;
73100;SDS011;61288;53.446;-2.266;2022-10-16T10:04:17;9.52;;;1.45;;
73100;SDS011;61288;53.446;-2.266;2022-10-16T10:06:57;5.72;;;1.02;;
73100;SDS011;61288;53.446;-2.266;2022-10-16T10:09:31;2.97;;;0.82;;
73100;SDS011;61288;53.446;-2.266;2022-10-16T10:12:19;1.98;;;1.00;;
73100;SDS011;61288;53.446;-2.266;2022-10-16T10:14:48;8.18;;;1.30;;
73100;SDS011;61288;53.446;-2.266;2022-10-16T10:17:44;5.47;;;1.50;;
73100;SDS011;61288;53.446;-2.266;2022-10-16T10:20:21;7.55;;;1.10;;
73100;SDS011;61288;53.446;-2.266;2022-10-16T10:22:49;5.30;;;0.93;;
73100;SDS011;61288;53.446;-2.266;2022-10-16T10:25:18;5.20;;;0.98;;
73100;SDS011;61288;53.446;-2.266;2022-10-16T10:30:35;6.60;;;1.08;;
73100;SDS011;61288;53.446;-2.266;2022-10-16T10:46:23;5.22;;;1.00;;
73100;SDS011;61288;53.446;-2.266;2022-10-16T10:49:08;6.60;;;1.25;;
73100;SDS011;61288;53.446;-2.266;2022-10-16T10:57:09;4.82;;;0.93;;
73100;SDS011;61288;53.446;-2.266;2022-10-16T11:00:01;5.28;;;1.05;;
73100;SDS011;61288;53.446;-2.266;2022-10-16T11:02:33;3.50;;;0.88;;
73100;SDS011;61288;53.446;-2.266;2022-10-16T11:08:10;5.40;;;1.10;;
73100;SDS011;61288;53.446;-2.266;2022-10-16T11:10:42;4.10;;;1.27;;
73100;SDS011;61288;53.446;-2.266;2022-10-16T11:15:41;4.07;;;0.70;;
73100;SDS011;61288;53.446;-2.266;2022-10-16T11:18:19;2.80;;;0.90;;
73100;SDS011;61288;53.446;-2.266;2022-10-16T11:20:50;6.50;;;1.10;;
73100;SDS011;61288;53.446;-2.266;2022-10-16T11:23:29;5.57;;;1.10;;
73100;SDS011;61288;53.446;-2.266;2022-10-16T11:26:04;3.83;;;1.00;;
73100;SDS011;61288;53.446;-2.266;2022-10-16T11:28:35;2.63;;;0.80;;
73100;SDS011;61288;53.446;-2.266;2022-10-16T11:36:13;3.85;;;1.00;;
73100;SDS011;61288;53.446;-2.266;2022-10-16T11:38:58;3.97;;;0.88;;
73100;SDS011;61288;53.446;-2.266;2022-10-16T11:41:46;4.78;;;1.13;;
73100;SDS011;61288;53.446;-2.266;2022-10-16T11:44:20;5.75;;;0.82;;
73100;SDS011;61288;53.446;-2.266;2022-10-16T11:49:30;3.15;;;0.98;;
73100;SDS011;61288;53.446;-2.266;2022-10-16T11:52:06;3.33;;;0.80;;
73100;SDS011;61288;53.446;-2.266;2022-10-16T11:54:49;3.33;;;0.80;;
73100;SDS011;61288;53.446;-2.266;2022-10-16T11:57:23;10.57;;;1.20;;
73100;SDS011;61288;53.446;-2.266;2022-10-16T12:02:33;4.88;;;0.80;;
73100;SDS011;61288;53.446;-2.266;2022-10-16T12:07:38;6.38;;;1.00;;
73100;SDS011;61288;53.446;-2.266;2022-10-16T12:10:25;3.47;;;0.77;;
73100;SDS011;61288;53.446;-2.266;2022-10-16T12:12:52;2.72;;;0.70;;
73100;SDS011;61288;53.446;-2.266;2022-10-16T12:15:19;2.05;;;0.60;;
73100;SDS011;61288;53.446;-2.266;2022-10-16T12:17:55;2.78;;;0.68;;
73100;SDS011;61288;53.446;-2.266;2022-10-16T12:30:38;4.32;;;0.88;;
73100;SDS011;61288;53.446;-2.266;2022-10-16T12:33:24;4.97;;;0.85;;
73100;SDS011;61288;53.446;-2.266;2022-10-16T12:35:52;2.92;;;0.95;;
73100;SDS011;61288;53.446;-2.266;2022-10-16T12:38:19;4.10;;;1.13;;
73100;SDS011;61288;53.446;-2.266;2022-10-16T12:41:04;3.53;;;1.00;;
73100;SDS011;61288;53.446;-2.266;2022-10-16T12:48:42;5.60;;;1.13;;
73100;SDS011;61288;53.446;-2.266;2022-10-16T13:09:59;4.40;;;0.93;;
73100;SDS011;61288;53.446;-2.266;2022-10-16T13:15:29;7.22;;;0.90;;
73100;SDS011;61288;53.446;-2.266;2022-10-16T13:28:29;1.73;;;0.70;;
73100;SDS011;61288;53.446;-2.266;2022-10-16T13:31:00;5.13;;;1.00;;
73100;SDS011;61288;53.446;-2.266;2022-10-16T13:33:42;3.45;;;0.82;;
73100;SDS011;61288;53.446;-2.266;2022-10-16T13:36:20;2.55;;;0.80;;
73100;SDS011;61288;53.446;-2.266;2022-10-16T13:39:00;7.00;;;0.90;;
73100;SDS011;61288;53.446;-2.266;2022-10-16T13:41:31;4.70;;;1.05;;
73100;SDS011;61288;53.446;-2.266;2022-10-16T13:43:57;3.20;;;0.70;;
73100;SDS011;61288;53.446;-2.266;2022-10-16T13:46:23;3.88;;;0.63;;
73100;SDS011;61288;53.446;-2.266;2022-10-16T13:48:57;4.60;;;0.93;;
73100;SDS011;61288;53.446;-2.266;2022-10-16T13:51:27;2.58;;;0.70;;
73100;SDS011;61288;53.446;-2.266;2022-10-16T13:53:54;5.18;;;0.88;;
73100;SDS011;61288;53.446;-2.266;2022-10-16T13:56:21;5.07;;;0.90;;
73100;SDS011;61288;53.446;-2.266;2022-10-16T13:58:59;4.68;;;1.02;;
73100;SDS011;61288;53.446;-2.266;2022-10-16T14:01:34;4.07;;;1.17;;
73100;SDS011;61288;53.446;-2.266;2022-10-16T14:04:08;4.82;;;1.00;;
73100;SDS011;61288;53.446;-2.266;2022-10-16T14:06:36;6.05;;;0.90;;
73100;SDS011;61288;53.446;-2.266;2022-10-16T14:09:07;2.33;;;0.80;;
73100;SDS011;61288;53.446;-2.266;2022-10-16T14:11:54;4.90;;;0.90;;
73100;SDS011;61288;53.446;-2.266;2022-10-16T14:14:23;2.00;;;0.80;;
73100;SDS011;61288;53.446;-2.266;2022-10-16T14:16:49;4.72;;;0.90;;
73100;SDS011;61288;53.446;-2.266;2022-10-16T14:19:23;3.92;;;0.90;;
73100;SDS011;61288;53.446;-2.266;2022-10-16T14:21:51;5.43;;;1.00;;
73100;SDS011;61288;53.446;-2.266;2022-10-16T14:26:55;2.13;;;1.20;;
73100;SDS011;61288;53.446;-2.266;2022-10-16T14:29:22;3.72;;;1.10;;
73100;SDS011;61288;53.446;-2.266;2022-10-16T14:31:56;8.52;;;1.25;;
73100;SDS011;61288;53.446;-2.266;2022-10-16T14:34:33;3.55;;;0.85;;
73100;SDS011;61288;53.446;-2.266;2022-10-16T14:37:05;2.60;;;0.93;;
73100;SDS011;61288;53.446;-2.266;2022-10-16T14:39:39;4.78;;;1.27;;
73100;SDS011;61288;53.446;-2.266;2022-10-16T14:42:11;5.60;;;1.33;;
73100;SDS011;61288;53.446;-2.266;2022-10-16T14:44:42;7.13;;;1.27;;
73100;SDS011;61288;53.446;-2.266;2022-10-16T14:47:09;6.00;;;1.15;;
73100;SDS011;61288;53.446;-2.266;2022-10-16T14:49:42;6.75;;;1.23;;
73100;SDS011;61288;53.446;-2.266;2022-10-16T14:52:08;5.15;;;1.10;;
73100;SDS011;61288;53.446;-2.266;2022-10-16T14:54:36;3.22;;;1.05;;
73100;SDS011;61288;53.446;-2.266;2022-10-16T14:57:01;4.45;;;0.93;;
73100;SDS011;61288;53.446;-2.266;2022-10-16T14:59:31;5.78;;;1.20;;
73100;SDS011;61288;53.446;-2.266;2022-10-16T15:02:23;5.53;;;1.08;;
73100;SDS011;61288;53.446;-2.266;2022-10-16T15:04:53;3.78;;;1.30;;
73100;SDS011;61288;53.446;-2.266;2022-10-16T15:07:19;2.38;;;0.80;;
73100;SDS011;61288;53.446;-2.266;2022-10-16T15:09:45;6.60;;;1.00;;
73100;SDS011;61288;53.446;-2.266;2022-10-16T15:12:10;5.70;;;1.00;;
73100;SDS011;61288;53.446;-2.266;2022-10-16T15:14:36;3.60;;;0.80;;
73100;SDS011;61288;53.446;-2.266;2022-10-16T15:17:02;8.00;;;1.00;;
73100;SDS011;61288;53.446;-2.266;2022-10-16T15:19:28;6.28;;;1.10;;
73100;SDS011;61288;53.446;-2.266;2022-10-16T15:21:54;3.40;;;1.30;;
73100;SDS011;61288;53.446;-2.266;2022-10-16T15:24:20;8.75;;;2.13;;
73100;SDS011;61288;53.446;-2.266;2022-10-16T15:26:45;5.90;;;1.70;;
73100;SDS011;61288;53.446;-2.266;2022-10-16T15:29:12;5.82;;;1.40;;
73100;SDS011;61288;53.446;-2.266;2022-10-16T15:31:38;7.10;;;1.75;;
73100;SDS011;61288;53.446;-2.266;2022-10-16T15:34:08;5.80;;;1.23;;
73100;SDS011;61288;53.446;-2.266;2022-10-16T15:36:35;3.90;;;1.10;;
73100;SDS011;61288;53.446;-2.266;2022-10-16T15:39:08;4.85;;;1.30;;
73100;SDS011;61288;53.446;-2.266;2022-10-16T15:41:44;4.30;;;1.08;;
73100;SDS011;61288;53.446;-2.266;2022-10-16T15:44:15;6.50;;;1.55;;
73100;SDS011;61288;53.446;-2.266;2022-10-16T15:46:44;6.00;;;1.30;;
73100;SDS011;61288;53.446;-2.266;2022-10-16T15:49:09;4.20;;;1.35;;
73100;SDS011;61288;53.446;-2.266;2022-10-16T15:51:40;5.50;;;1.20;;
73100;SDS011;61288;53.446;-2.266;2022-10-16T15:54:06;4.03;;;1.20;;
73100;SDS011;61288;53.446;-2.266;2022-10-16T15:56:32;4.80;;;1.42;;
73100;SDS011;61288;53.446;-2.266;2022-10-16T15:58:59;4.90;;;1.20;;
73100;SDS011;61288;53.446;-2.266;2022-10-16T16:01:25;4.40;;;1.48;;
73100;SDS011;61288;53.446;-2.266;2022-10-16T16:03:54;6.53;;;1.33;;
73100;SDS011;61288;53.446;-2.266;2022-10-16T16:06:21;6.15;;;1.60;;
73100;SDS011;61288;53.446;-2.266;2022-10-16T16:08:50;6.40;;;1.80;;
73100;SDS011;61288;53.446;-2.266;2022-10-16T16:11:16;8.07;;;1.50;;
73100;SDS011;61288;53.446;-2.266;2022-10-16T16:13:45;4.20;;;1.35;;
73100;SDS011;61288;53.446;-2.266;2022-10-16T16:16:12;7.05;;;1.60;;
73100;SDS011;61288;53.446;-2.266;2022-10-16T16:18:39;7.60;;;1.27;;
73100;SDS011;61288;53.446;-2.266;2022-10-16T16:21:05;6.85;;;1.38;;
73100;SDS011;61288;53.446;-2.266;2022-10-16T16:23:31;5.57;;;1.52;;
73100;SDS011;61288;53.446;-2.266;2022-10-16T16:26:04;5.03;;;1.55;;
73100;SDS011;61288;53.446;-2.266;2022-10-16T16:28:31;7.35;;;1.55;;
73100;SDS011;61288;53.446;-2.266;2022-10-16T16:30:57;3.75;;;1.35;;
73100;SDS011;61288;53.446;-2.266;2022-10-16T16:33:23;4.88;;;1.52;;
73100;SDS011;61288;53.446;-2.266;2022-10-16T16:35:49;9.95;;;1.83;;
73100;SDS011;61288;53.446;-2.266;2022-10-16T16:38:14;4.07;;;1.52;;
73100;SDS011;61288;53.446;-2.266;2022-10-16T16:40:40;7.85;;;1.50;;
73100;SDS011;61288;53.446;-2.266;2022-10-16T16:43:06;6.50;;;1.55;;
73100;SDS011;61288;53.446;-2.266;2022-10-16T16:45:34;7.68;;;1.73;;
73100;SDS011;61288;53.446;-2.266;2022-10-16T16:48:00;7.22;;;1.98;;
73100;SDS011;61288;53.446;-2.266;2022-10-16T16:50:26;7.05;;;1.50;;
73100;SDS011;61288;53.446;-2.266;2022-10-16T16:52:51;6.88;;;1.65;;
73100;SDS011;61288;53.446;-2.266;2022-10-16T16:55:17;7.40;;;1.85;;